createdAt,value
2023-04-15T00:01:56.408Z,54.90
2023-04-15T00:04:26.877Z,57.00
2023-04-15T00:06:57.282Z,56.67
2023-04-15T00:09:27.661Z,53.55
2023-04-15T00:11:57.906Z,58.50
2023-04-15T00:14:28.637Z,58.38
2023-04-15T00:16:59.770Z,59.72
2023-04-15T00:19:30.173Z,63.10
2023-04-15T00:22:03.912Z,66.18
2023-04-15T00:24:37.299Z,64.90
2023-04-15T00:27:08.077Z,64.50
2023-04-15T00:29:38.435Z,61.35
2023-04-15T00:32:09.068Z,61.83
2023-04-15T00:34:39.658Z,62.05
2023-04-15T00:37:12.222Z,61.10
2023-04-15T00:39:43.227Z,63.60
2023-04-15T00:42:14.455Z,64.10
2023-04-15T00:44:45.151Z,66.47
2023-04-15T00:47:16.285Z,64.60
2023-04-15T00:52:16.742Z,61.28
2023-04-15T00:54:47.081Z,63.63
2023-04-15T00:57:17.524Z,65.83
2023-04-15T00:59:47.884Z,67.23
2023-04-15T01:02:18.855Z,63.80
2023-04-15T01:04:49.528Z,61.47
2023-04-15T01:07:19.880Z,63.17
2023-04-15T01:09:50.614Z,63.27
2023-04-15T01:12:23.017Z,65.00
2023-04-15T01:14:53.909Z,61.10
2023-04-15T01:19:54.754Z,61.33
2023-04-15T01:22:25.281Z,52.67
2023-04-15T01:25:04.734Z,61.13
2023-04-15T01:27:36.475Z,59.78
2023-04-15T01:30:07.753Z,57.22
2023-04-15T01:32:38.197Z,57.85
2023-04-15T01:35:09.090Z,57.47
2023-04-15T01:37:40.059Z,56.58
2023-04-15T01:40:10.995Z,56.47
2023-04-15T01:42:41.254Z,56.45
2023-04-15T01:45:12.500Z,57.40
2023-04-15T01:47:42.967Z,55.38
2023-04-15T01:50:13.781Z,57.10
2023-04-15T01:52:44.215Z,55.45
2023-04-15T01:55:16.516Z,57.70
2023-04-15T01:57:49.067Z,59.95
2023-04-15T02:00:20.228Z,61.17
2023-04-15T02:02:50.495Z,59.70
2023-04-15T02:05:20.928Z,59.43
2023-04-15T02:07:51.885Z,58.17
2023-04-15T02:10:22.159Z,59.50
2023-04-15T02:12:52.281Z,57.33
2023-04-15T02:15:22.821Z,61.33
2023-04-15T02:17:54.958Z,61.15
2023-04-15T02:20:25.985Z,64.90
2023-04-15T02:22:56.461Z,66.28
2023-04-15T02:25:27.260Z,65.20
2023-04-15T02:28:00.735Z,65.43
2023-04-15T02:30:31.095Z,64.75
2023-04-15T02:33:05.860Z,65.68
2023-04-15T02:38:14.146Z,69.68
2023-04-15T02:40:47.092Z,70.77
2023-04-15T02:43:17.470Z,68.10
2023-04-15T02:45:49.715Z,69.60
2023-04-15T02:48:21.949Z,74.47
2023-04-15T02:50:52.399Z,70.30
2023-04-15T02:53:23.264Z,72.15
2023-04-15T02:55:54.024Z,71.28
2023-04-15T02:58:24.367Z,71.28
2023-04-15T03:00:54.695Z,76.57
2023-04-15T03:03:26.664Z,74.03
2023-04-15T03:05:57.120Z,75.72
2023-04-15T03:08:28.001Z,77.80
2023-04-15T03:11:03.637Z,75.55
2023-04-15T03:13:36.272Z,74.70
2023-04-15T03:16:14.102Z,78.30
2023-04-15T03:18:45.554Z,104.55
2023-04-15T03:21:16.326Z,101.25
2023-04-15T03:23:48.485Z,88.53
2023-04-15T03:26:33.050Z,85.30
2023-04-15T03:29:12.580Z,81.22
2023-04-15T03:34:17.845Z,77.30
2023-04-15T03:36:53.432Z,79.47
2023-04-15T03:39:25.170Z,81.07
2023-04-15T03:41:55.793Z,81.75
2023-04-15T03:44:26.171Z,77.10
2023-04-15T03:46:57.089Z,79.45
2023-04-15T03:51:58.650Z,79.25
2023-04-15T03:54:29.093Z,79.22
2023-04-15T03:57:00.304Z,78.00
2023-04-15T03:59:30.822Z,77.03
2023-04-15T04:02:01.169Z,80.93
2023-04-15T04:04:31.650Z,78.67
2023-04-15T04:07:02.108Z,85.47
2023-04-15T04:10:24.010Z,101.30
2023-04-15T04:12:54.518Z,76.85
2023-04-15T04:15:24.827Z,79.22
2023-04-15T04:17:54.952Z,82.93
2023-04-15T04:20:25.177Z,77.18
2023-04-15T04:22:55.313Z,78.88
2023-04-15T04:25:25.623Z,80.60
2023-04-15T04:27:56.127Z,76.90
2023-04-15T04:30:26.456Z,80.13
2023-04-15T04:32:56.835Z,78.82
2023-04-15T04:35:27.178Z,78.97
2023-04-15T04:37:57.556Z,74.63
2023-04-15T04:40:28.238Z,76.70
2023-04-15T04:42:58.717Z,74.15
2023-04-15T04:45:29.580Z,78.27
2023-04-15T04:48:00.135Z,76.40
2023-04-15T04:50:30.383Z,77.63
2023-04-15T04:53:01.131Z,81.15
2023-04-15T04:55:31.470Z,76.53
2023-04-15T04:58:01.835Z,76.90
2023-04-15T05:00:32.761Z,81.75
2023-04-15T05:03:03.655Z,81.00
2023-04-15T05:05:34.046Z,74.53
2023-04-15T05:08:04.408Z,85.07
2023-04-15T05:10:34.699Z,80.57
2023-04-15T05:13:05.061Z,79.13
2023-04-15T05:15:47.417Z,75.70
2023-04-15T05:18:17.537Z,78.40
2023-04-15T05:20:47.655Z,81.75
2023-04-15T05:23:19.064Z,76.45
2023-04-15T05:25:49.365Z,73.53
2023-04-15T05:28:20.023Z,74.93
2023-04-15T05:30:50.450Z,76.72
2023-04-15T05:33:20.752Z,75.03
2023-04-15T05:35:51.065Z,79.63
2023-04-15T05:38:21.514Z,74.60
2023-04-15T05:40:51.812Z,77.13
2023-04-15T05:43:21.943Z,78.43
2023-04-15T05:45:55.622Z,78.88
2023-04-15T05:48:28.839Z,77.93
2023-04-15T05:50:59.092Z,78.15
2023-04-15T05:53:29.649Z,78.93
2023-04-15T05:55:59.689Z,78.00
2023-04-15T05:58:30.071Z,77.78
2023-04-15T06:01:00.535Z,76.28
2023-04-15T06:03:31.035Z,77.05
2023-04-15T06:06:01.381Z,80.70
2023-04-15T06:08:31.954Z,75.25
2023-04-15T06:11:02.289Z,77.27
2023-04-15T06:13:32.818Z,78.47
2023-04-15T06:16:04.988Z,75.50
2023-04-15T06:18:35.475Z,75.55
2023-04-15T06:21:05.895Z,78.17
2023-04-15T06:23:39.820Z,78.10
2023-04-15T06:26:10.909Z,74.68
2023-04-15T06:31:11.587Z,74.00
2023-04-15T06:33:42.377Z,77.33
2023-04-15T06:36:12.699Z,74.30
2023-04-15T06:38:43.164Z,78.13
2023-04-15T06:41:13.556Z,73.13
2023-04-15T06:43:43.913Z,75.23
2023-04-15T06:46:14.339Z,74.27
2023-04-15T06:48:44.853Z,74.37
2023-04-15T06:51:15.092Z,74.53
2023-04-15T06:53:46.409Z,71.63
2023-04-15T06:56:16.684Z,76.55
2023-04-15T06:58:52.529Z,74.75
2023-04-15T07:01:32.321Z,78.63
2023-04-15T07:04:02.873Z,77.00
2023-04-15T07:06:33.595Z,74.40
2023-04-15T07:09:04.410Z,78.97
2023-04-15T07:11:34.996Z,75.28
2023-04-15T07:14:05.841Z,76.65
2023-04-15T07:16:36.203Z,74.77
2023-04-15T07:19:06.496Z,80.13
2023-04-15T07:21:36.777Z,76.07
2023-04-15T07:24:07.270Z,79.23
2023-04-15T07:26:37.529Z,73.73
2023-04-15T07:29:08.470Z,78.97
2023-04-15T07:31:39.891Z,77.50
2023-04-15T07:34:10.469Z,80.43
2023-04-15T07:36:42.226Z,75.82
2023-04-15T07:39:12.603Z,79.32
2023-04-15T07:41:43.316Z,80.47
2023-04-15T07:44:14.013Z,76.20
2023-04-15T07:46:44.284Z,77.13
2023-04-15T07:49:14.716Z,76.80
2023-04-15T07:51:44.992Z,78.93
2023-04-15T07:54:15.216Z,72.28
2023-04-15T07:56:45.602Z,76.67
2023-04-15T07:59:17.871Z,77.10
2023-04-15T08:01:49.086Z,80.72
2023-04-15T08:04:19.920Z,74.63
2023-04-15T08:06:52.212Z,76.40
2023-04-15T08:09:22.569Z,78.13
2023-04-15T08:11:53.831Z,74.53
2023-04-15T08:14:24.632Z,73.95
2023-04-15T08:16:54.926Z,79.43
2023-04-15T08:19:25.455Z,75.77
2023-04-15T08:21:56.190Z,77.53
2023-04-15T08:24:28.731Z,75.35
2023-04-15T08:26:59.967Z,75.88
2023-04-15T08:29:30.921Z,74.43
2023-04-15T08:32:06.361Z,72.20
2023-04-15T08:34:37.240Z,74.10
2023-04-15T08:37:07.445Z,75.57
2023-04-15T08:39:37.758Z,75.20
2023-04-15T08:42:14.316Z,72.10
2023-04-15T08:44:47.202Z,75.53
2023-04-15T08:47:19.069Z,75.03
2023-04-15T08:49:55.834Z,73.30
2023-04-15T08:52:31.033Z,70.45
2023-04-15T08:55:04.873Z,76.18
2023-04-15T08:57:36.371Z,74.03
2023-04-15T09:00:07.128Z,72.28
2023-04-15T09:02:38.551Z,69.13
2023-04-15T09:05:10.459Z,64.05
2023-04-15T09:07:41.147Z,67.68
2023-04-15T09:10:13.124Z,65.60
2023-04-15T09:12:43.445Z,68.78
2023-04-15T09:15:18.011Z,66.80
2023-04-15T09:17:50.380Z,67.45
2023-04-15T09:20:23.800Z,62.92
2023-04-15T09:22:55.079Z,67.15
2023-04-15T09:25:32.207Z,65.20
2023-04-15T09:28:05.272Z,61.88
2023-04-15T09:30:36.025Z,62.70
2023-04-15T09:33:10.600Z,62.40
2023-04-15T09:35:40.960Z,59.60
2023-04-15T09:38:13.258Z,59.57
2023-04-15T09:40:44.928Z,58.45
2023-04-15T09:43:19.785Z,54.95
2023-04-15T09:45:57.599Z,54.63
2023-04-15T09:48:33.633Z,55.92
2023-04-15T09:51:04.896Z,57.35
2023-04-15T09:53:38.933Z,56.33
2023-04-15T09:56:11.274Z,58.30
2023-04-15T09:58:41.789Z,56.47
2023-04-15T10:01:13.905Z,58.10
2023-04-15T10:03:45.143Z,57.75
2023-04-15T10:09:05.917Z,55.22
2023-04-15T10:11:37.901Z,59.03
2023-04-15T10:14:09.992Z,60.42
2023-04-15T10:16:45.574Z,59.15
2023-04-15T10:19:18.698Z,60.67
2023-04-15T10:21:49.535Z,60.70
2023-04-15T10:24:23.166Z,60.08
2023-04-15T10:26:55.231Z,59.88
2023-04-15T10:29:29.722Z,60.22
2023-04-15T10:32:03.056Z,60.72
2023-04-15T10:34:37.818Z,59.28
2023-04-15T10:37:08.251Z,60.38
2023-04-15T10:39:46.764Z,61.47
2023-04-15T10:42:19.723Z,63.05
2023-04-15T10:44:55.500Z,57.75
2023-04-15T10:47:26.688Z,59.72
2023-04-15T10:52:32.173Z,58.28
2023-04-15T10:57:45.787Z,57.08
2023-04-15T11:00:20.514Z,57.83
2023-04-15T11:03:10.455Z,56.13
2023-04-15T11:05:54.130Z,58.72
2023-04-15T11:08:58.626Z,57.72
2023-04-15T11:12:07.523Z,58.40
2023-04-15T11:14:42.730Z,59.33
2023-04-15T11:17:13.115Z,59.63
2023-04-15T11:19:43.764Z,58.30
2023-04-15T11:22:15.050Z,58.28
2023-04-15T11:27:26.932Z,56.25
2023-04-15T11:29:57.256Z,57.65
2023-04-15T11:32:27.614Z,57.40
2023-04-15T11:34:58.063Z,58.63
2023-04-15T11:37:32.797Z,57.47
2023-04-15T11:40:06.126Z,58.00
2023-04-15T11:42:48.612Z,58.42
2023-04-15T11:45:20.102Z,58.88
2023-04-15T11:47:50.420Z,57.90
2023-04-15T11:50:26.486Z,56.20
2023-04-15T11:53:09.741Z,59.13
2023-04-15T11:55:51.947Z,56.78
2023-04-15T11:58:25.114Z,58.65
2023-04-15T12:00:58.024Z,58.95
2023-04-15T12:03:33.672Z,59.47
2023-04-15T12:06:18.895Z,59.45
2023-04-15T12:08:58.187Z,63.05
2023-04-15T12:11:35.319Z,61.70
2023-04-15T12:14:27.167Z,60.78
2023-04-15T12:17:01.163Z,61.17
2023-04-15T12:19:33.963Z,60.92
2023-04-15T12:22:24.630Z,60.78
2023-04-15T12:24:59.817Z,61.90
2023-04-15T12:27:30.737Z,59.80
2023-04-15T12:30:08.490Z,61.38
2023-04-15T12:32:40.452Z,60.40
2023-04-15T12:35:12.487Z,60.63
2023-04-15T12:37:42.964Z,62.80
2023-04-15T12:40:13.706Z,62.53
2023-04-15T12:42:44.296Z,60.92
2023-04-15T12:45:14.445Z,61.63
2023-04-15T12:47:44.693Z,63.38
2023-04-15T12:50:15.043Z,63.43
2023-04-15T12:52:45.244Z,61.90
2023-04-15T12:55:15.563Z,60.22
2023-04-15T12:57:46.091Z,62.17
2023-04-15T13:00:17.009Z,59.87
2023-04-15T13:02:47.559Z,63.22
2023-04-15T13:05:18.317Z,62.97
2023-04-15T13:07:48.767Z,61.00
2023-04-15T13:10:19.135Z,61.08
2023-04-15T13:12:51.848Z,61.70
2023-04-15T13:15:25.754Z,63.92
2023-04-15T13:17:56.377Z,62.72
2023-04-15T13:20:29.408Z,64.30
2023-04-15T13:22:59.777Z,63.17
2023-04-15T13:25:30.372Z,65.50
2023-04-15T13:28:01.143Z,64.43
2023-04-15T13:30:31.536Z,64.37
2023-04-15T13:33:02.390Z,65.70
2023-04-15T13:35:32.904Z,64.07
2023-04-15T13:38:03.394Z,63.42
2023-04-15T13:40:33.952Z,63.28
2023-04-15T13:43:04.576Z,61.53
2023-04-15T13:45:35.148Z,63.35
2023-04-15T13:48:05.591Z,64.23
2023-04-15T13:50:36.049Z,64.83
2023-04-15T13:53:06.484Z,66.33
2023-04-15T13:55:37.987Z,64.40
2023-04-15T13:58:08.467Z,62.28
2023-04-15T14:00:38.897Z,60.70
2023-04-15T14:03:09.456Z,62.17
2023-04-15T14:05:40.588Z,64.97
2023-04-15T14:08:10.819Z,66.15
2023-04-15T14:10:41.400Z,66.93
2023-04-15T14:13:11.619Z,68.80
2023-04-15T14:15:41.973Z,71.97
2023-04-15T14:18:12.328Z,72.47
2023-04-15T14:20:42.707Z,69.85
2023-04-15T14:23:13.396Z,68.87
2023-04-15T14:25:44.692Z,70.97
2023-04-15T14:28:16.597Z,71.38
2023-04-15T14:30:46.832Z,68.70
2023-04-15T14:33:17.142Z,70.05
2023-04-15T14:35:47.522Z,72.75
2023-04-15T14:38:17.900Z,69.83
2023-04-15T14:40:48.295Z,68.27
2023-04-15T14:43:19.497Z,67.30
2023-04-15T14:45:50.215Z,68.22
2023-04-15T14:48:20.560Z,69.22
2023-04-15T14:50:50.982Z,70.47
2023-04-15T14:53:21.530Z,65.40
2023-04-15T14:55:52.080Z,66.80
2023-04-15T14:58:22.201Z,69.53
2023-04-15T15:00:52.574Z,69.45
2023-04-15T15:03:23.190Z,68.50
2023-04-15T15:05:53.518Z,67.73
2023-04-15T15:08:23.931Z,68.43
2023-04-15T15:10:54.273Z,67.85
2023-04-15T15:13:24.511Z,68.60
2023-04-15T15:15:54.845Z,69.88
2023-04-15T15:18:27.846Z,68.27
2023-04-15T15:20:58.242Z,66.80
2023-04-15T15:23:28.558Z,67.63
2023-04-15T15:25:59.033Z,69.13
2023-04-15T15:28:29.717Z,68.17
2023-04-15T15:31:00.029Z,67.15
2023-04-15T15:33:30.472Z,71.00
2023-04-15T15:36:01.171Z,72.03
2023-04-15T15:38:31.583Z,72.53
2023-04-15T15:41:02.061Z,73.87
2023-04-15T15:43:32.320Z,71.57
2023-04-15T15:46:03.814Z,75.88
2023-04-15T15:49:05.199Z,79.10
2023-04-15T15:51:35.896Z,78.90
2023-04-15T15:54:09.266Z,75.10
2023-04-15T15:56:40.894Z,75.13
2023-04-15T15:59:11.166Z,75.70
2023-04-15T16:01:41.323Z,76.68
2023-04-15T16:04:12.752Z,74.65
2023-04-15T16:06:44.070Z,73.28
2023-04-15T16:11:44.545Z,75.32
2023-04-15T16:14:16.457Z,74.35
2023-04-15T16:16:46.910Z,79.50
2023-04-15T16:19:17.860Z,76.72
2023-04-15T16:21:48.289Z,77.78
2023-04-15T16:24:22.227Z,76.53
2023-04-15T16:26:52.461Z,81.88
2023-04-15T16:29:22.904Z,77.47
2023-04-15T16:31:53.474Z,80.85
2023-04-15T16:34:23.840Z,80.67
2023-04-15T16:36:54.219Z,79.67
2023-04-15T16:39:26.429Z,78.03
2023-04-15T16:41:56.706Z,76.57
2023-04-15T16:44:28.253Z,81.03
2023-04-15T16:46:59.119Z,82.63
2023-04-15T16:49:29.238Z,79.38
2023-04-15T16:52:00.388Z,79.22
2023-04-15T16:54:32.156Z,81.07
2023-04-15T16:57:02.479Z,84.30
2023-04-15T16:59:32.796Z,81.80
2023-04-15T17:02:03.217Z,81.22
2023-04-15T17:04:33.648Z,81.63
2023-04-15T17:07:03.946Z,81.43
2023-04-15T17:09:34.658Z,79.38
2023-04-15T17:12:06.479Z,76.40
2023-04-15T17:14:37.498Z,81.25
2023-04-15T17:17:08.612Z,79.88
2023-04-15T17:22:09.718Z,79.03
2023-04-15T17:24:39.977Z,81.60
2023-04-15T17:27:10.112Z,80.78
2023-04-15T17:29:40.277Z,80.80
2023-04-15T17:32:10.562Z,81.57
2023-04-15T17:34:49.757Z,82.80
2023-04-15T17:37:21.546Z,80.70
2023-04-15T17:39:51.789Z,77.72
2023-04-15T17:42:22.122Z,77.30
2023-04-15T17:44:52.500Z,82.80
2023-04-15T17:47:23.205Z,79.37
2023-04-15T17:49:53.575Z,73.65
2023-04-15T17:52:23.813Z,81.67
2023-04-15T17:54:54.097Z,81.03
2023-04-15T17:57:24.335Z,79.63
2023-04-15T17:59:54.554Z,79.50
2023-04-15T18:02:24.930Z,80.22
2023-04-15T18:04:55.418Z,84.80
2023-04-15T18:07:25.772Z,80.90
2023-04-15T18:09:58.288Z,82.80
2023-04-15T18:12:28.459Z,81.68
2023-04-15T18:14:58.704Z,81.90
2023-04-15T18:17:29.942Z,81.10
2023-04-15T18:20:00.231Z,83.82
2023-04-15T18:22:30.573Z,82.70
2023-04-15T18:25:06.390Z,82.80
2023-04-15T18:27:38.225Z,97.13
2023-04-15T18:30:11.452Z,83.85
2023-04-15T18:32:45.182Z,81.95
2023-04-15T18:35:35.914Z,84.95
2023-04-15T18:38:06.289Z,82.70
2023-04-15T18:40:36.575Z,80.93
2023-04-15T18:43:06.912Z,85.07
2023-04-15T18:45:37.297Z,83.30
2023-04-15T18:48:07.898Z,81.70
2023-04-15T18:50:38.343Z,81.75
2023-04-15T18:53:08.615Z,83.80
2023-04-15T18:55:38.972Z,82.60
2023-04-15T18:58:10.268Z,83.97
2023-04-15T19:00:44.080Z,82.90
2023-04-15T19:03:14.502Z,83.95
2023-04-15T19:05:44.797Z,87.60
2023-04-15T19:08:15.258Z,85.60
2023-04-15T19:10:46.201Z,85.43
2023-04-15T19:13:18.352Z,88.60
2023-04-15T19:15:49.621Z,88.22
2023-04-15T19:18:19.883Z,81.20
2023-04-15T19:20:57.396Z,84.70
2023-04-15T19:23:42.110Z,86.32
2023-04-15T19:26:12.781Z,86.78
2023-04-15T19:28:42.955Z,82.63
2023-04-15T19:31:13.197Z,85.15
2023-04-15T19:33:49.369Z,82.45
2023-04-15T19:36:20.612Z,85.75
2023-04-15T19:41:20.675Z,88.53
2023-04-15T19:43:50.946Z,81.80
2023-04-15T19:46:21.223Z,83.80
2023-04-15T19:48:51.664Z,81.67
2023-04-15T19:51:22.038Z,87.93
2023-04-15T19:53:52.355Z,86.30
2023-04-15T19:56:23.147Z,85.90
2023-04-15T19:58:55.417Z,86.55
2023-04-15T20:01:25.925Z,87.63
2023-04-15T20:03:56.985Z,87.85
2023-04-15T20:06:29.180Z,88.43
2023-04-15T20:08:59.617Z,101.25
2023-04-15T20:12:09.659Z,88.10
2023-04-15T20:14:24.144Z,87.28
2023-04-15T20:16:54.446Z,91.22
2023-04-15T20:19:24.763Z,81.88
2023-04-15T20:21:56.361Z,86.75
2023-04-15T20:24:26.813Z,85.82
2023-04-15T20:26:57.120Z,87.73
2023-04-15T20:29:27.526Z,81.15
2023-04-15T20:31:58.695Z,83.80
2023-04-15T20:36:59.326Z,87.07
2023-04-15T20:39:29.815Z,88.60
2023-04-15T20:42:00.143Z,84.22
2023-04-15T20:44:30.836Z,83.28
2023-04-15T20:47:01.656Z,85.93
2023-04-15T20:49:39.022Z,86.40
2023-04-15T20:52:10.539Z,88.32
2023-04-15T20:54:40.742Z,83.30
2023-04-15T20:57:11.076Z,88.53
2023-04-15T20:59:41.383Z,89.70
2023-04-15T21:02:11.930Z,88.00
2023-04-15T21:04:42.169Z,89.37
2023-04-15T21:07:12.859Z,83.85
2023-04-15T21:09:43.871Z,86.65
2023-04-15T21:12:14.274Z,85.20
2023-04-15T21:14:44.503Z,85.53
2023-04-15T21:17:14.808Z,84.20
2023-04-15T21:19:45.766Z,80.55
2023-04-15T21:22:15.855Z,81.45
2023-04-15T21:24:46.147Z,81.82
2023-04-15T21:27:16.461Z,84.60
2023-04-15T21:29:46.615Z,81.55
2023-04-15T21:32:16.830Z,83.28
2023-04-15T21:34:47.298Z,84.80
2023-04-15T21:37:17.741Z,81.40
2023-04-15T21:39:48.088Z,79.30
2023-04-15T21:42:18.432Z,80.55
2023-04-15T21:44:48.810Z,79.88
2023-04-15T21:47:19.110Z,79.47
2023-04-15T21:49:49.566Z,80.67
2023-04-15T21:52:20.107Z,82.07
2023-04-15T21:54:50.473Z,78.23
2023-04-15T21:57:20.520Z,80.88
2023-04-15T21:59:50.607Z,80.88
2023-04-15T22:02:20.837Z,80.95
2023-04-15T22:04:51.224Z,76.77
2023-04-15T22:07:21.612Z,80.93
2023-04-15T22:09:51.913Z,80.70
2023-04-15T22:12:22.005Z,77.57
2023-04-15T22:14:52.428Z,80.00
2023-04-15T22:17:22.809Z,77.60
2023-04-15T22:19:53.067Z,81.63
2023-04-15T22:22:27.413Z,79.50
2023-04-15T22:25:14.473Z,79.50
2023-04-15T22:27:44.861Z,78.93
2023-04-15T22:30:15.647Z,80.72
2023-04-15T22:32:46.400Z,77.57
2023-04-15T22:35:16.817Z,79.45
2023-04-15T22:37:47.069Z,78.47
2023-04-15T22:40:17.329Z,75.85
2023-04-15T22:42:48.657Z,76.97
2023-04-15T22:45:19.059Z,77.53
2023-04-15T22:47:49.391Z,76.70
2023-04-15T22:50:19.720Z,74.05
2023-04-15T22:52:50.649Z,75.93
2023-04-15T22:55:20.990Z,76.15
2023-04-15T22:57:51.173Z,77.28
2023-04-15T23:00:21.249Z,77.78
2023-04-15T23:02:52.070Z,78.28
2023-04-15T23:05:22.655Z,77.18
2023-04-15T23:07:53.134Z,76.43
2023-04-15T23:10:23.622Z,75.77
2023-04-15T23:12:54.040Z,77.37
2023-04-15T23:15:24.461Z,78.60
2023-04-15T23:17:54.847Z,76.13
2023-04-15T23:20:25.145Z,76.03
2023-04-15T23:22:55.508Z,76.55
2023-04-15T23:25:25.927Z,79.10
2023-04-15T23:27:56.644Z,77.67
2023-04-15T23:30:26.946Z,77.05
2023-04-15T23:32:57.507Z,77.55
2023-04-15T23:35:29.645Z,81.50
2023-04-15T23:37:59.941Z,82.90
2023-04-15T23:40:30.148Z,80.95
2023-04-15T23:43:00.747Z,84.03
2023-04-15T23:45:31.706Z,81.95
2023-04-15T23:48:02.052Z,79.03
2023-04-15T23:50:32.407Z,83.53
2023-04-15T23:53:02.885Z,82.70
2023-04-15T23:55:34.230Z,82.93
2023-04-15T23:58:04.941Z,80.22
